Time;durP1;ratioP1;P1;durP2;ratioP2;P2;SDS_P1;SDS_P2;PMS_P1;PMS_P2;Temp;Humidity;BMP_temperature;BMP_pressure;BME280_temperature;BME280_humidity;BME280_pressure;Samples;Min_cycle;Max_cycle;Signal;HPM_P1;HPM_P2
2023/10/28 00:01:06;;;;;;;;;2.00;2.00;;;;;11.12;100.00;98216.78;6295243;20;1804615;-58
2023/10/28 00:03:35;;;;;;;;;2.00;2.00;;;;;11.13;100.00;98226.53;6330202;20;1801454;-59
2023/10/28 00:06:04;;;;;;;;;3.00;1.00;;;;;11.10;100.00;98234.88;6312720;20;2756529;-58
2023/10/28 00:08:35;;;;;;;;;2.00;2.00;;;;;11.04;100.00;98222.84;6302245;20;1811937;-41
2023/10/28 00:11:04;;;;;;;;;3.00;2.00;;;;;11.40;100.00;98224.13;6314722;20;2735721;-41
2023/10/28 00:13:32;;;;;;;;;3.00;2.00;;;;;11.26;100.00;98232.53;6284678;20;2738860;-49
2023/10/28 00:16:00;;;;;;;;;2.00;2.00;;;;;11.16;100.00;98234.31;6284677;20;2744023;-45
2023/10/28 00:18:28;;;;;;;;;1.25;1.25;;;;;11.24;100.00;98234.50;6301531;20;1803546;-44
2023/10/28 00:20:56;;;;;;;;;3.00;3.00;;;;;11.14;100.00;98233.63;6316199;20;2733697;-45
2023/10/28 00:23:25;;;;;;;;;3.00;3.00;;;;;11.36;100.00;98237.97;6284687;20;2744077;-43
2023/10/28 00:26:04;;;;;;;;;4.50;2.00;;;;;11.16;100.00;98237.88;6279798;20;2744038;-44
2023/10/28 00:28:35;;;;;;;;;2.50;2.50;;;;;11.19;100.00;98239.47;6285327;20;2756659;-46
2023/10/28 00:31:04;;;;;;;;;2.50;2.00;;;;;11.10;100.00;98232.19;6280047;20;2751341;-45
2023/10/28 00:33:34;;;;;;;;;2.00;2.00;;;;;11.15;100.00;98236.16;6284412;20;2751380;-48
2023/10/28 00:36:09;;;;;;;;;5.00;5.00;;;;;11.09;100.00;98233.19;6294208;20;2740515;-42
2023/10/28 00:38:37;;;;;;;;;3.00;3.00;;;;;11.20;100.00;98233.09;6282806;20;2746248;-42
2023/10/28 00:41:04;;;;;;;;;6.00;5.00;;;;;11.18;100.00;98241.28;6283379;20;2737819;-43
2023/10/28 00:43:32;;;;;;;;;3.00;3.00;;;;;11.14;100.00;98241.69;6284075;20;2744039;-42
2023/10/28 00:46:03;;;;;;;;;6.00;4.00;;;;;11.27;100.00;98249.50;6282192;20;2739883;-42
2023/10/28 00:48:31;;;;;;;;;7.00;4.00;;;;;11.19;100.00;98250.22;6281356;20;2748322;-43
2023/10/28 00:51:03;;;;;;;;;4.86;3.57;;;;;11.37;100.00;98253.09;6322334;20;3451468;-42
2023/10/28 00:53:31;;;;;;;;;4.00;4.00;;;;;11.26;100.00;98251.34;6312656;20;2741990;-43
2023/10/28 00:56:00;;;;;;;;;4.00;4.00;;;;;11.25;100.00;98252.34;6283429;20;2739864;-43
2023/10/28 00:58:28;;;;;;;;;5.00;3.00;;;;;11.23;100.00;98265.06;6279642;20;2754484;-42
2023/10/28 01:00:58;;;;;;;;;3.50;2.00;;;;;11.27;100.00;98266.50;6277506;20;2744063;-44
2023/10/28 01:03:28;;;;;;;;;1.50;1.50;;;;;11.32;100.00;98268.75;6285752;20;2735716;-42
2023/10/28 01:05:57;;;;;;;;;2.50;2.50;;;;;11.33;100.00;98271.34;6283845;20;2738790;-43
2023/10/28 01:08:26;;;;;;;;;3.75;2.00;;;;;11.31;100.00;98272.44;6303671;20;1805659;-42
2023/10/28 01:11:01;;;;;;;;;2.50;2.50;;;;;11.36;100.00;98275.59;6320381;20;2730558;-44
2023/10/28 01:13:30;;;;;;;;;2.00;2.00;;;;;11.37;100.00;98278.16;6289101;20;2739880;-43
2023/10/28 01:15:59;;;;;;;;;1.00;1.00;;;;;11.28;100.00;98275.41;6303608;20;1799820;-43
2023/10/28 01:18:27;;;;;;;;;3.00;3.00;;;;;11.33;100.00;98275.88;6322574;20;2721307;-44
2023/10/28 01:20:56;;;;;;;;;4.50;3.00;;;;;11.41;100.00;98267.97;6305398;20;1804573;-43
2023/10/28 01:23:24;;;;;;;;;2.50;2.00;;;;;11.25;100.00;98263.09;6319461;20;2754491;-44
2023/10/28 01:25:52;;;;;;;;;2.00;2.00;;;;;11.44;100.00;98270.38;6287698;20;2756597;-42
2023/10/28 01:28:19;;;;;;;;;4.00;3.00;;;;;11.40;100.00;98277.00;6290012;20;2739869;-42
2023/10/28 01:30:48;;;;;;;;;4.00;4.00;;;;;11.41;100.00;98289.47;6287968;20;2750263;-42
2023/10/28 01:33:16;;;;;;;;;3.25;3.25;;;;;11.29;100.00;98290.53;6306546;20;1812880;-42
2023/10/28 01:35:44;;;;;;;;;7.00;4.50;;;;;11.29;100.00;98285.16;6315417;20;2748339;-43
2023/10/28 01:38:13;;;;;;;;;4.00;4.00;;;;;11.31;100.00;98300.16;6289629;20;2745219;-43
2023/10/28 01:40:41;;;;;;;;;0.00;0.00;;;;;11.13;100.00;98299.91;6288378;20;2745074;-42
2023/10/28 01:43:11;;;;;;;;;4.00;2.50;;;;;11.03;100.00;98303.53;6284866;20;2744572;-43
2023/10/28 01:45:39;;;;;;;;;4.00;4.00;;;;;10.94;100.00;98305.19;6286261;20;2750412;-43
2023/10/28 01:48:07;;;;;;;;;2.50;2.50;;;;;11.17;100.00;98305.91;6285766;20;2745188;-43
2023/10/28 01:50:35;;;;;;;;;5.50;4.00;;;;;11.01;100.00;98308.19;6287771;20;2754613;-43
2023/10/28 01:53:03;;;;;;;;;3.00;3.00;;;;;10.96;100.00;98313.97;6287040;20;2757575;-42
2023/10/28 01:55:32;;;;;;;;;5.00;3.00;;;;;10.99;100.00;98316.38;6284439;20;2746348;-42
2023/10/28 01:58:00;;;;;;;;;4.00;2.50;;;;;11.08;100.00;98317.41;6285396;20;2739903;-42
2023/10/28 02:00:31;;;;;;;;;1.75;1.50;;;;;11.17;100.00;98314.81;6299533;20;1806688;-43
2023/10/28 02:03:02;;;;;;;;;3.50;3.00;;;;;10.95;100.00;98314.91;6317389;20;2736755;-43
2023/10/28 02:05:30;;;;;;;;;2.00;2.00;;;;;11.07;100.00;98313.88;6287764;20;2737788;-43
2023/10/28 02:07:59;;;;;;;;;3.00;2.00;;;;;10.96;100.00;98306.75;6283864;20;2735807;-44
2023/10/28 02:10:27;;;;;;;;;3.00;3.00;;;;;11.10;100.00;98310.94;6285795;20;2739866;-42
2023/10/28 02:12:55;;;;;;;;;3.00;3.00;;;;;11.09;100.00;98317.28;6283354;20;2752404;-42
2023/10/28 02:15:23;;;;;;;;;3.50;3.50;;;;;10.92;100.00;98312.50;6284077;20;2756737;-44
2023/10/28 02:17:52;;;;;;;;;3.00;3.00;;;;;11.03;100.00;98322.31;6283988;20;2741959;-42
2023/10/28 02:20:20;;;;;;;;;5.00;3.50;;;;;11.09;100.00;98322.66;6281737;20;2754632;-46
2023/10/28 02:22:48;;;;;;;;;3.50;3.50;;;;;11.04;100.00;98324.06;6284326;20;2754542;-42
2023/10/28 02:25:16;;;;;;;;;3.50;3.50;;;;;10.98;100.00;98328.13;6289919;20;2746155;-43
2023/10/28 02:27:44;;;;;;;;;5.50;5.50;;;;;10.72;100.00;98330.31;6285615;20;2737848;-44
2023/10/28 02:30:13;;;;;;;;;5.00;5.00;;;;;10.74;100.00;98334.56;6284605;20;2741950;-42
2023/10/28 02:32:41;;;;;;;;;5.00;5.00;;;;;10.89;100.00;98334.25;6286895;20;2741992;-43
2023/10/28 02:35:09;;;;;;;;;6.00;6.00;;;;;10.85;100.00;98346.22;6287008;20;2736837;-45
2023/10/28 02:37:39;;;;;;;;;4.80;4.80;;;;;10.58;100.00;98352.91;6306473;20;2748322;-45
2023/10/28 02:40:09;;;;;;;;;5.00;5.00;;;;;10.80;100.00;98361.88;6316670;20;2756517;-48
2023/10/28 02:42:37;;;;;;;;;7.50;7.50;;;;;10.71;100.00;98358.97;6285321;20;2738878;-48
2023/10/28 02:45:07;;;;;;;;;7.00;5.00;;;;;10.67;100.00;98348.63;6287704;20;2736776;-44
2023/10/28 02:47:37;;;;;;;;;5.60;5.60;;;;;10.86;100.00;98356.84;6307283;20;2748260;-44
2023/10/28 02:50:07;;;;;;;;;4.00;4.00;;;;;10.87;100.00;98352.31;6316352;20;2754488;-45
2023/10/28 02:52:35;;;;;;;;;7.00;6.00;;;;;10.79;100.00;98344.06;6282648;20;2739910;-44
2023/10/28 02:55:05;;;;;;;;;7.00;5.50;;;;;10.67;100.00;98346.78;6288037;20;2737739;-48
2023/10/28 02:57:33;;;;;;;;;6.00;6.00;;;;;10.73;100.00;98348.97;6281268;20;2748342;-43
2023/10/28 03:00:04;;;;;;;;;7.00;7.00;;;;;10.71;100.00;98340.19;6281429;20;2746138;-43
2023/10/28 03:02:34;;;;;;;;;10.40;10.00;;;;;10.54;100.00;98343.44;6307767;20;2796323;-47
2023/10/28 03:05:05;;;;;;;;;11.00;11.00;;;;;10.55;100.00;98355.84;6283574;20;2794018;-43
2023/10/28 03:07:33;;;;;;;;;7.00;7.00;;;;;10.50;100.00;98352.69;6283702;20;2743115;-43
2023/10/28 03:10:00;;;;;;;;;10.00;7.00;;;;;10.71;100.00;98355.44;6283700;20;2762780;-43
2023/10/28 03:12:28;;;;;;;;;10.00;8.50;;;;;10.62;100.00;98351.69;6283650;20;2761832;-43
2023/10/28 03:14:56;;;;;;;;;12.00;9.00;;;;;10.60;100.00;98348.28;6282398;20;2769108;-43
2023/10/28 03:17:24;;;;;;;;;10.50;9.00;;;;;10.27;100.00;98354.59;6284009;20;2769223;-43
2023/10/28 03:19:52;;;;;;;;;11.00;11.00;;;;;10.44;100.00;98361.28;6278453;20;2779546;-44
2023/10/28 03:22:20;;;;;;;;;11.50;11.50;;;;;10.62;100.00;98357.06;6283736;20;2798230;-44
2023/10/28 03:24:49;;;;;;;;;17.67;13.67;;;;;10.57;100.00;98353.06;6283666;20;3544015;-43
2023/10/28 03:27:17;;;;;;;;;14.33;12.33;;;;;10.63;100.00;98356.06;6306242;20;3534642;-44
2023/10/28 03:29:45;;;;;;;;;17.00;16.50;;;;;10.37;100.00;98358.22;6313779;20;2823342;-42
2023/10/28 03:32:14;;;;;;;;;14.00;14.00;;;;;10.54;100.00;98370.28;6281917;20;3521369;-44
2023/10/28 03:34:45;;;;;;;;;18.33;13.67;;;;;10.54;100.00;98364.91;6281356;20;3552299;-44
2023/10/28 03:37:14;;;;;;;;;15.00;12.00;;;;;10.66;100.00;98368.38;6311072;20;2802566;-43
2023/10/28 03:39:42;;;;;;;;;17.33;15.33;;;;;10.58;100.00;98365.50;6282860;20;3551315;-43
2023/10/28 03:42:11;;;;;;;;;20.00;17.00;;;;;10.70;100.00;98372.53;6311788;20;2491979;-43
2023/10/28 03:44:39;;;;;;;;;20.00;14.00;;;;;10.75;100.00;98368.47;6279833;20;2751357;-43
2023/10/28 03:47:07;;;;;;;;;12.50;12.50;;;;;10.91;100.00;98373.41;6283600;20;2791965;-42
2023/10/28 03:49:36;;;;;;;;;11.67;11.67;;;;;10.79;100.00;98374.44;6279054;20;3528424;-42
2023/10/28 03:52:05;;;;;;;;;14.00;14.00;;;;;10.89;100.00;98375.38;6312290;20;3526747;-42
2023/10/28 03:54:34;;;;;;;;;18.33;17.00;;;;;10.83;100.00;98380.44;6312432;20;2832582;-43
2023/10/28 03:57:03;;;;;;;;;18.33;15.33;;;;;10.63;100.00;98374.88;6310141;20;3552503;-43
2023/10/28 03:59:31;;;;;;;;;19.00;18.00;;;;;10.57;100.00;98380.75;6282799;20;2834735;-43
2023/10/28 04:02:00;;;;;;;;;17.50;16.00;;;;;10.56;100.00;98373.69;6279452;20;2496127;-44
2023/10/28 04:04:28;;;;;;;;;14.00;14.00;;;;;10.70;100.00;98381.44;6286241;20;2799226;-45
2023/10/28 04:06:56;;;;;;;;;16.00;14.50;;;;;10.52;100.00;98382.97;6282826;20;2807618;-43
2023/10/28 04:09:24;;;;;;;;;14.50;14.50;;;;;10.64;100.00;98390.00;6284858;20;2806549;-42
2023/10/28 04:11:52;;;;;;;;;17.67;16.67;;;;;10.46;100.00;98388.84;6279861;20;3567956;-43
2023/10/28 04:14:20;;;;;;;;;16.00;16.00;;;;;10.35;100.00;98391.53;6282912;20;2825373;-43
2023/10/28 04:16:50;;;;;;;;;29.67;27.67;;;;;10.52;100.00;98388.31;6276035;20;3609017;-43
2023/10/28 04:19:20;;;;;;;;;56.33;45.00;;;;;10.35;100.00;98400.44;6311587;20;3619095;-42
2023/10/28 04:21:50;;;;;;;;;48.67;39.67;;;;;10.44;100.00;98394.31;6312095;20;2870299;-43
2023/10/28 04:24:20;;;;;;;;;54.67;44.33;;;;;10.48;100.00;98398.47;6310513;20;2863420;-45
2023/10/28 04:26:49;;;;;;;;;37.50;33.00;;;;;10.75;100.00;98400.69;6309741;20;2855597;-44
2023/10/28 04:29:18;;;;;;;;;24.50;23.00;;;;;10.59;100.00;98405.63;6280658;20;2822149;-43
2023/10/28 04:31:47;;;;;;;;;29.67;27.67;;;;;10.58;100.00;98401.22;6281569;20;3593035;-43
2023/10/28 04:34:16;;;;;;;;;22.00;18.00;;;;;10.59;100.00;98416.38;6278683;20;2837929;-45
2023/10/28 04:36:44;;;;;;;;;20.00;18.50;;;;;10.55;100.00;98415.75;6278163;20;2500320;-43
2023/10/28 04:39:12;;;;;;;;;22.00;20.50;;;;;10.56;100.00;98419.31;6278368;20;2487874;-45
2023/10/28 04:41:40;;;;;;;;;18.00;16.50;;;;;10.49;100.00;98420.78;6279256;20;2828507;-42
2023/10/28 04:44:13;;;;;;;;;18.50;16.50;;;;;10.48;100.00;98425.31;6285165;20;2833652;-43
2023/10/28 04:46:41;;;;;;;;;19.00;17.00;;;;;10.65;100.00;98418.53;6284377;20;2498210;-41
2023/10/28 04:49:11;;;;;;;;;18.00;18.00;;;;;10.69;100.00;98414.63;6281982;20;2840926;-43
2023/10/28 04:51:40;;;;;;;;;18.67;16.67;;;;;10.49;100.00;98416.25;6286367;20;3560762;-43
2023/10/28 04:54:07;;;;;;;;;23.50;19.50;;;;;10.74;100.00;98420.47;6286994;20;2841920;-43
2023/10/28 04:56:35;;;;;;;;;19.50;18.00;;;;;10.86;100.00;98423.13;6283509;20;2839895;-44
2023/10/28 04:59:04;;;;;;;;;17.00;16.00;;;;;10.81;100.00;98428.03;6284859;20;2650363;-43
2023/10/28 05:01:33;;;;;;;;;17.33;16.67;;;;;10.78;100.00;98431.81;6318942;20;2827394;-45
2023/10/28 05:04:02;;;;;;;;;22.33;17.33;;;;;10.72;100.00;98437.69;6318601;20;3569113;-44
2023/10/28 05:06:30;;;;;;;;;23.00;22.00;;;;;10.76;100.00;98444.50;6314462;20;2848197;-45
2023/10/28 05:08:59;;;;;;;;;18.00;16.33;;;;;10.90;100.00;98438.84;6287122;20;2827347;-48
2023/10/28 05:11:27;;;;;;;;;22.00;20.00;;;;;11.00;100.00;98444.28;6313389;20;2500395;-48
2023/10/28 05:13:56;;;;;;;;;19.67;17.67;;;;;11.06;100.00;98451.88;6283327;20;3569029;-44
2023/10/28 05:16:25;;;;;;;;;20.50;19.00;;;;;11.23;100.00;98446.91;6284247;20;2839932;-45
2023/10/28 05:18:54;;;;;;;;;18.00;16.00;;;;;11.26;100.00;98449.31;6282891;20;2814917;-44
2023/10/28 05:21:22;;;;;;;;;20.50;17.00;;;;;10.59;100.00;98447.72;6281162;20;2496105;-46
2023/10/28 05:23:50;;;;;;;;;19.50;18.00;;;;;10.49;100.00;98453.84;6282871;20;2491952;-44
2023/10/28 05:26:19;;;;;;;;;31.67;29.33;;;;;10.70;100.00;98456.59;6284608;20;3568080;-46
2023/10/28 05:28:50;;;;;;;;;32.33;30.00;;;;;10.61;100.00;98462.72;6317555;20;3594111;-48
2023/10/28 05:31:19;;;;;;;;;25.00;25.00;;;;;10.35;100.00;98461.28;6284419;20;3596093;-44
2023/10/28 05:33:48;;;;;;;;;37.00;29.33;;;;;10.61;100.00;98468.09;6282484;20;3614838;-46
2023/10/28 05:36:17;;;;;;;;;25.00;25.00;;;;;10.45;100.00;98463.13;6313848;20;2860853;-41
2023/10/28 05:38:46;;;;;;;;;23.50;23.00;;;;;10.75;100.00;98467.81;6283919;20;2839932;-46
2023/10/28 05:41:15;;;;;;;;;14.33;14.33;;;;;10.91;100.00;98466.56;6283308;20;3533597;-44
2023/10/28 05:43:43;;;;;;;;;16.33;14.00;;;;;10.80;100.00;98478.19;6314575;20;3545120;-46
2023/10/28 05:46:13;;;;;;;;;13.50;13.50;;;;;10.82;100.00;98472.66;6315861;20;2813843;-45
2023/10/28 05:48:41;;;;;;;;;13.50;13.00;;;;;11.02;100.00;98481.78;6283956;20;2792207;-44
2023/10/28 05:51:10;;;;;;;;;17.33;16.00;;;;;10.74;100.00;98484.91;6284614;20;2824281;-44
2023/10/28 05:53:38;;;;;;;;;14.00;13.33;;;;;10.86;100.00;98499.16;6311944;20;2783640;-43
2023/10/28 05:56:07;;;;;;;;;13.67;12.33;;;;;10.94;100.00;98495.84;6314122;20;3526395;-46
2023/10/28 05:58:36;;;;;;;;;11.50;11.50;;;;;11.29;100.00;98497.44;6313429;20;2792006;-45
2023/10/28 06:01:04;;;;;;;;;12.00;12.00;;;;;13.13;100.00;98506.44;6285927;20;2791006;-45
2023/10/28 06:03:33;;;;;;;;;14.33;13.00;;;;;15.80;95.92;98486.13;6284204;20;2792029;-44
2023/10/28 06:06:02;;;;;;;;;12.00;12.00;;;;;14.20;98.96;98484.81;6312534;20;3519010;-43
2023/10/28 06:08:30;;;;;;;;;16.67;15.67;;;;;14.97;94.96;98487.34;6318620;20;3554437;-44
2023/10/28 06:10:59;;;;;;;;;28.67;23.67;;;;;14.77;96.58;98492.00;6314864;20;3583763;-43
2023/10/28 06:13:29;;;;;;;;;29.67;24.67;;;;;14.96;96.28;98502.72;6283177;20;3602470;-44
2023/10/28 06:15:58;;;;;;;;;26.67;22.00;;;;;14.08;98.81;98510.28;6317797;20;3575316;-44
2023/10/28 06:18:27;;;;;;;;;22.67;20.67;;;;;14.96;98.38;98518.09;6284378;20;3584090;-44
2023/10/28 06:20:57;;;;;;;;;33.00;30.00;;;;;14.07;99.73;98519.38;6281207;20;3617061;-43
2023/10/28 06:23:25;;;;;;;;;22.33;22.33;;;;;13.39;100.00;98520.28;6311686;20;3571227;-43
2023/10/28 06:25:55;;;;;;;;;21.00;17.50;;;;;14.81;100.00;98536.63;6272062;20;2836859;-44
2023/10/28 06:28:27;;;;;;;;;22.00;18.00;;;;;15.49;94.35;98539.78;6282165;20;2840867;-43
2023/10/28 06:30:58;;;;;;;;;21.00;15.00;;;;;13.82;100.00;98543.28;6283338;20;2827525;-43
2023/10/28 06:33:27;;;;;;;;;14.00;14.00;;;;;12.75;100.00;98550.34;6286592;20;2804588;-43
2023/10/28 06:35:55;;;;;;;;;15.00;15.00;;;;;12.31;100.00;98563.16;6285397;20;2806682;-46
2023/10/28 06:38:27;;;;;;;;;13.67;12.00;;;;;12.23;100.00;98561.13;6282148;20;3523546;-43
2023/10/28 06:40:57;;;;;;;;;12.00;10.67;;;;;12.38;100.00;98564.34;6313553;20;3511766;-62
2023/10/28 06:43:25;;;;;;;;;14.00;12.00;;;;;12.74;100.00;98575.53;6315967;20;2796278;-45
2023/10/28 06:45:54;;;;;;;;;12.33;11.00;;;;;12.49;100.00;98582.25;6282128;20;3520046;-44
2023/10/28 06:48:23;;;;;;;;;13.00;12.00;;;;;12.41;100.00;98576.69;6310597;20;3512769;-43
2023/10/28 06:50:51;;;;;;;;;14.00;14.00;;;;;12.52;100.00;98587.34;6313171;20;2794124;-44
2023/10/28 06:53:21;;;;;;;;;12.00;12.00;;;;;12.82;100.00;98589.22;6312545;20;3515972;-45
2023/10/28 06:55:50;;;;;;;;;15.00;13.00;;;;;18.41;98.33;98577.56;6313221;20;2795062;-43
2023/10/28 06:58:19;;;;;;;;;9.00;8.40;;;;;22.00;63.82;98580.28;6307455;20;2752373;-43
2023/10/28 07:00:48;;;;;;;;;9.33;9.00;;;;;20.53;64.56;98579.34;6278433;20;2765013;-44
2023/10/28 07:03:17;;;;;;;;;10.67;10.00;;;;;23.99;50.22;98588.13;6311053;20;2792113;-44
2023/10/28 07:05:47;;;;;;;;;11.20;9.60;;;;;24.45;51.12;98595.56;6338702;20;2786783;-44
2023/10/28 07:08:18;;;;;;;;;11.80;10.20;;;;;24.03;50.36;98603.91;6304654;20;2794070;-46
2023/10/28 07:10:49;;;;;;;;;7.00;6.00;;;;;21.38;57.15;98599.94;6307581;20;2733647;-43
2023/10/28 07:13:17;;;;;;;;;8.00;7.33;;;;;16.39;83.72;98586.59;6313236;20;2740933;-44
2023/10/28 07:15:46;;;;;;;;;9.67;9.00;;;;;15.33;97.31;98596.41;6310439;20;2762910;-43
2023/10/28 07:18:18;;;;;;;;;10.60;9.00;;;;;15.71;97.46;98610.72;6334881;20;2766986;-43
2023/10/28 07:20:47;;;;;;;;;9.80;9.00;;;;;14.98;100.00;98603.44;6307260;20;2746373;-44
2023/10/28 07:23:17;;;;;;;;;13.40;11.60;;;;;15.48;100.00;98613.84;6304025;20;2793045;-44
2023/10/28 07:25:45;;;;;;;;;10.00;10.00;;;;;14.77;100.00;98606.34;6286904;20;2796122;-43
2023/10/28 07:28:15;;;;;;;;;9.60;7.40;;;;;14.21;100.00;98613.41;6306134;20;2766338;-47
2023/10/28 07:30:48;;;;;;;;;6.80;5.80;;;;;14.41;100.00;98616.94;6303129;20;2739958;-43
2023/10/28 07:33:21;;;;;;;;;8.57;8.00;;;;;14.25;100.00;98617.53;6354619;20;3449229;-49
2023/10/28 07:35:51;;;;;;;;;6.80;6.80;;;;;14.04;100.00;98619.53;6332570;20;2743092;-46
2023/10/28 07:38:21;;;;;;;;;8.20;8.20;;;;;14.13;100.00;98620.53;6336285;20;2744035;-54
2023/10/28 07:40:49;;;;;;;;;11.00;8.00;;;;;14.25;100.00;98624.78;6310643;20;2760729;-44
2023/10/28 07:43:18;;;;;;;;;10.00;7.00;;;;;13.93;100.00;98633.16;6284122;20;2747203;-45
2023/10/28 07:45:46;;;;;;;;;6.00;6.00;;;;;14.00;100.00;98639.69;6298982;20;1813596;-42
2023/10/28 07:48:16;;;;;;;;;9.00;6.00;;;;;14.09;100.00;98638.00;6340287;20;2746242;-43
2023/10/28 07:50:44;;;;;;;;;8.50;8.50;;;;;14.86;100.00;98637.03;6315778;20;2734681;-44
2023/10/28 07:53:12;;;;;;;;;8.00;8.00;;;;;15.04;100.00;98642.53;6282402;20;2748389;-46
2023/10/28 07:55:40;;;;;;;;;10.00;8.50;;;;;14.48;100.00;98644.19;6282246;20;2765911;-42
2023/10/28 07:58:09;;;;;;;;;8.00;8.00;;;;;14.25;100.00;98647.22;6280817;20;2730698;-42
2023/10/28 08:00:37;;;;;;;;;8.00;8.00;;;;;14.75;100.00;98656.13;6280799;20;2748666;-42
2023/10/28 08:03:07;;;;;;;;;11.67;9.00;;;;;14.57;100.00;98659.59;6281201;20;2771222;-49
2023/10/28 08:05:35;;;;;;;;;12.00;10.00;;;;;15.08;100.00;98658.28;6317255;20;2789895;-43
2023/10/28 08:08:04;;;;;;;;;9.67;9.67;;;;;14.57;100.00;98659.59;6280561;20;2769006;-41
2023/10/28 08:10:33;;;;;;;;;11.00;11.00;;;;;14.72;100.00;98665.38;6312875;20;3516632;-42
2023/10/28 08:13:02;;;;;;;;;15.00;13.00;;;;;15.10;100.00;98672.50;6310077;20;2793061;-44
2023/10/28 08:15:30;;;;;;;;;12.67;12.67;;;;;15.74;100.00;98672.63;6310755;20;3516945;-41
2023/10/28 08:17:58;;;;;;;;;16.00;16.00;;;;;14.67;100.00;98673.06;6309069;20;2483616;-43
2023/10/28 08:20:28;;;;;;;;;21.50;18.50;;;;;14.77;100.00;98664.94;6279889;20;2831859;-41
2023/10/28 08:22:57;;;;;;;;;15.00;15.00;;;;;14.67;100.00;98665.81;6279952;20;3529577;-42
2023/10/28 08:25:26;;;;;;;;;16.33;13.00;;;;;15.31;100.00;98663.31;6312658;20;3519011;-42
2023/10/28 08:27:55;;;;;;;;;13.33;12.00;;;;;16.08;99.49;98677.41;6312662;20;3519116;-46
2023/10/28 08:30:23;;;;;;;;;14.33;14.33;;;;;15.58;97.49;98679.53;6308186;20;3510650;-42
2023/10/28 08:32:56;;;;;;;;;11.67;11.33;;;;;15.39;100.00;98681.50;6312694;20;3523723;-43
2023/10/28 08:35:28;;;;;;;;;11.00;11.00;;;;;14.73;100.00;98679.75;6283600;20;2789993;-41
2023/10/28 08:37:56;;;;;;;;;13.00;13.00;;;;;15.01;100.00;98692.34;6285259;20;2795098;-41
2023/10/28 08:40:26;;;;;;;;;13.33;12.33;;;;;15.65;99.85;98698.72;6281503;20;3534661;-41
2023/10/28 08:43:00;;;;;;;;;11.00;11.00;;;;;15.52;99.09;98693.66;6283499;20;2791407;-42
2023/10/28 08:45:29;;;;;;;;;13.00;11.33;;;;;15.61;99.26;98699.19;6278226;20;3522137;-42
2023/10/28 08:47:58;;;;;;;;;13.67;13.33;;;;;15.44;98.55;98700.84;6307549;20;3519114;-42
2023/10/28 08:50:27;;;;;;;;;10.67;9.00;;;;;16.04;98.21;98703.94;6307580;20;3486802;-41
2023/10/28 08:53:03;;;;;;;;;13.33;13.33;;;;;16.44;95.62;98706.19;6308090;20;2792990;-42
2023/10/28 08:55:36;;;;;;;;;8.00;8.00;;;;;16.26;95.18;98709.91;6335108;20;2744065;-42
2023/10/28 08:58:06;;;;;;;;;11.00;11.00;;;;;17.19;92.43;98711.13;6313527;20;2789989;-41
2023/10/28 09:00:35;;;;;;;;;10.00;10.00;;;;;16.17;91.63;98714.41;6278205;20;3503801;-41
2023/10/28 09:03:05;;;;;;;;;10.67;10.67;;;;;16.51;90.98;98713.66;6311914;20;3517970;-43
2023/10/28 09:05:33;;;;;;;;;11.00;11.00;;;;;16.35;90.51;98717.97;6315621;20;2796247;-43
2023/10/28 09:08:02;;;;;;;;;11.33;9.00;;;;;16.44;90.79;98714.31;6279351;20;2773256;-41
2023/10/28 09:10:37;;;;;;;;;10.50;9.00;;;;;16.41;92.10;98722.75;6318850;20;2764943;-42
2023/10/28 09:13:08;;;;;;;;;10.67;10.67;;;;;16.87;89.74;98726.19;6279759;20;2788850;-43
2023/10/28 09:15:40;;;;;;;;;12.00;9.00;;;;;17.30;86.19;98723.63;6307413;20;3495100;-42
2023/10/28 09:18:10;;;;;;;;;11.20;11.20;;;;;16.94;86.81;98723.72;6335830;20;2789887;-42
2023/10/28 09:20:40;;;;;;;;;8.00;8.00;;;;;16.75;88.62;98722.03;6278348;20;2762005;-42
2023/10/28 09:23:12;;;;;;;;;13.80;10.00;;;;;16.59;88.82;98730.88;6335830;20;2794047;-43
2023/10/28 09:25:41;;;;;;;;;9.20;9.20;;;;;16.89;87.27;98735.03;6302644;20;2773194;-41
2023/10/28 09:28:16;;;;;;;;;12.50;9.50;;;;;16.51;86.70;98727.22;6284250;20;2770201;-43
2023/10/28 09:30:47;;;;;;;;;10.20;8.60;;;;;17.02;86.59;98729.19;6313868;20;2771207;-42
2023/10/28 09:33:19;;;;;;;;;9.40;8.00;;;;;16.49;87.83;98735.53;6313363;20;2758812;-41
2023/10/28 09:35:56;;;;;;;;;7.80;7.00;;;;;16.57;87.16;98740.16;6311196;20;2726356;-41
2023/10/28 09:38:25;;;;;;;;;8.00;8.00;;;;;16.40;89.73;98748.16;6342513;20;2731591;-43
2023/10/28 09:40:53;;;;;;;;;11.50;8.00;;;;;16.46;90.22;98749.38;6314274;20;2764847;-42
2023/10/28 09:43:26;;;;;;;;;6.57;6.43;;;;;16.45;89.17;98744.94;6326745;20;3459655;-43
2023/10/28 09:45:56;;;;;;;;;9.00;8.00;;;;;16.32;90.37;98737.22;6341073;20;2753449;-43
2023/10/28 09:48:33;;;;;;;;;7.20;7.20;;;;;16.49;91.25;98745.50;6343451;20;2743024;-42
2023/10/28 09:51:01;;;;;;;;;10.00;9.00;;;;;16.48;89.33;98738.38;6318235;20;2775313;-42
2023/10/28 09:53:37;;;;;;;;;8.00;8.00;;;;;16.40;91.64;98740.03;6325968;20;3444090;-42
2023/10/28 09:56:07;;;;;;;;;13.60;10.40;;;;;16.63;90.05;98742.25;6340378;20;2791142;-45
2023/10/28 09:58:50;;;;;;;;;14.00;10.00;;;;;16.54;90.30;98732.34;6286330;20;2790081;-42
2023/10/28 10:01:37;;;;;;;;;12.33;11.33;;;;;16.55;89.64;98736.75;6282734;20;3520101;-49
2023/10/28 10:04:23;;;;;;;;;12.33;11.00;;;;;16.31;92.78;98732.81;6319497;20;2794144;-47
2023/10/28 10:06:52;;;;;;;;;13.00;13.00;;;;;16.41;89.65;98722.75;6309300;20;3519027;-46
2023/10/28 10:09:20;;;;;;;;;27.00;22.00;;;;;16.49;87.98;98729.25;6315126;20;2839855;-46
2023/10/28 10:11:54;;;;;;;;;10.67;10.67;;;;;16.47;87.58;98721.28;6283230;20;3516038;-46
2023/10/28 10:14:24;;;;;;;;;13.33;9.33;;;;;16.39;87.47;98724.75;6311351;20;3499228;-46
2023/10/28 10:18:04;;;;;;;;;10.00;9.00;;;;;16.50;87.53;98720.09;6312705;20;2772153;-48
2023/10/28 10:20:33;;;;;;;;;12.67;11.67;;;;;16.62;88.21;98719.72;6310669;20;2789136;-42
2023/10/28 10:23:03;;;;;;;;;12.00;10.00;;;;;16.62;88.80;98727.00;6311727;20;2792092;-42
2023/10/28 10:25:43;;;;;;;;;12.00;12.00;;;;;16.87;88.03;98722.63;6287858;20;2791970;-42
2023/10/28 10:28:23;;;;;;;;;19.00;16.67;;;;;16.87;86.85;98738.91;6283286;20;3566920;-42
2023/10/28 10:30:52;;;;;;;;;15.00;15.00;;;;;16.95;86.81;98740.81;6284326;20;3529528;-43
2023/10/28 10:33:27;;;;;;;;;13.67;12.00;;;;;16.64;89.11;98738.50;6279280;20;2788948;-40
2023/10/28 10:35:55;;;;;;;;;14.00;13.00;;;;;16.78;89.21;98740.72;6318252;20;2794153;-44
2023/10/28 10:38:29;;;;;;;;;11.33;10.00;;;;;16.92;88.16;98733.84;6282881;20;3509636;-42
2023/10/28 10:40:58;;;;;;;;;13.00;11.00;;;;;16.90;86.42;98730.44;6313829;20;2787913;-43
2023/10/28 10:43:33;;;;;;;;;14.00;11.00;;;;;16.70;90.27;98737.91;6284844;20;2796142;-41
2023/10/28 10:46:00;;;;;;;;;8.50;8.50;;;;;16.89;87.66;98732.31;6283359;20;2750701;-41
2023/10/28 10:48:33;;;;;;;;;9.00;9.00;;;;;17.12;84.85;98734.50;6282657;20;2760726;-43
2023/10/28 10:51:02;;;;;;;;;9.00;8.00;;;;;17.36;84.08;98741.09;6315359;20;2748596;-43
2023/10/28 10:53:44;;;;;;;;;10.00;8.40;;;;;17.38;84.82;98745.38;6337511;20;2763810;-42
2023/10/28 10:56:21;;;;;;;;;11.00;10.00;;;;;16.87;86.70;98739.75;6284908;20;2790908;-42
2023/10/28 10:58:49;;;;;;;;;9.67;9.33;;;;;16.97;87.48;98733.38;6284863;20;2767156;-45
2023/10/28 11:01:17;;;;;;;;;10.50;10.50;;;;;16.92;86.09;98742.00;6316666;20;2792144;-44
2023/10/28 11:03:48;;;;;;;;;5.40;5.00;;;;;17.16;83.71;98735.88;6311107;20;2741080;-48
2023/10/28 11:06:15;;;;;;;;;8.00;8.00;;;;;17.19;82.93;98749.13;6315938;20;2746137;-48
2023/10/28 11:08:43;;;;;;;;;8.00;6.00;;;;;16.78;83.33;98742.56;6287155;20;2744041;-46
2023/10/28 11:11:13;;;;;;;;;2.00;2.00;;;;;16.98;81.20;98741.38;6290352;20;2748330;-48
2023/10/28 11:13:43;;;;;;;;;3.00;3.00;;;;;16.89;81.11;98745.88;6317100;20;2735753;-42